sensor_id;sensor_type;location;lat;lon;timestamp;temperature;humidity
73112;HTU21D;61301;51.956;5.876;2022-12-29T00:02:16;14.47;66.25
73112;HTU21D;61301;51.956;5.876;2022-12-29T00:04:42;14.43;66.27
73112;HTU21D;61301;51.956;5.876;2022-12-29T00:07:08;14.54;66.04
73112;HTU21D;61301;51.956;5.876;2022-12-29T00:09:35;14.51;66.07
73112;HTU21D;61301;51.956;5.876;2022-12-29T00:12:02;14.51;65.90
73112;HTU21D;61301;51.956;5.876;2022-12-29T00:14:28;14.49;66.04
73112;HTU21D;61301;51.956;5.876;2022-12-29T00:17:13;14.50;66.03
73112;HTU21D;61301;51.956;5.876;2022-12-29T00:19:40;14.54;65.66
73112;HTU21D;61301;51.956;5.876;2022-12-29T00:22:25;14.51;65.91
73112;HTU21D;61301;51.956;5.876;2022-12-29T00:25:11;14.57;65.68
73112;HTU21D;61301;51.956;5.876;2022-12-29T00:27:56;14.40;66.22
73112;HTU21D;61301;51.956;5.876;2022-12-29T00:30:41;14.54;65.73
73112;HTU21D;61301;51.956;5.876;2022-12-29T00:33:29;14.57;65.84
73112;HTU21D;61301;51.956;5.876;2022-12-29T00:36:35;14.58;65.71
73112;HTU21D;61301;51.956;5.876;2022-12-29T00:39:09;14.50;65.95
73112;HTU21D;61301;51.956;5.876;2022-12-29T00:41:55;14.57;65.72
73112;HTU21D;61301;51.956;5.876;2022-12-29T00:44:40;14.51;65.95
73112;HTU21D;61301;51.956;5.876;2022-12-29T00:47:06;14.55;65.74
73112;HTU21D;61301;51.956;5.876;2022-12-29T00:49:32;14.63;65.64
73112;HTU21D;61301;51.956;5.876;2022-12-29T00:52:09;14.62;65.69
73112;HTU21D;61301;51.956;5.876;2022-12-29T00:54:39;14.55;65.96
73112;HTU21D;61301;51.956;5.876;2022-12-29T00:57:06;14.59;65.86
73112;HTU21D;61301;51.956;5.876;2022-12-29T00:59:35;14.59;65.85
73112;HTU21D;61301;51.956;5.876;2022-12-29T01:02:01;14.57;65.80
73112;HTU21D;61301;51.956;5.876;2022-12-29T01:04:28;14.59;65.66
73112;HTU21D;61301;51.956;5.876;2022-12-29T01:06:54;14.48;65.63
73112;HTU21D;61301;51.956;5.876;2022-12-29T01:09:20;14.45;65.65
73112;HTU21D;61301;51.956;5.876;2022-12-29T01:12:06;14.50;65.29
73112;HTU21D;61301;51.956;5.876;2022-12-29T01:14:33;14.57;65.14
73112;HTU21D;61301;51.956;5.876;2022-12-29T01:16:59;14.53;65.17
73112;HTU21D;61301;51.956;5.876;2022-12-29T01:19:25;14.51;65.23
73112;HTU21D;61301;51.956;5.876;2022-12-29T01:21:51;14.60;65.11
73112;HTU21D;61301;51.956;5.876;2022-12-29T01:24:19;14.58;65.49
73112;HTU21D;61301;51.956;5.876;2022-12-29T01:26:46;14.36;66.42
73112;HTU21D;61301;51.956;5.876;2022-12-29T01:29:12;14.49;66.15
73112;HTU21D;61301;51.956;5.876;2022-12-29T01:31:39;14.40;66.62
73112;HTU21D;61301;51.956;5.876;2022-12-29T01:34:05;14.40;66.53
73112;HTU21D;61301;51.956;5.876;2022-12-29T01:36:32;14.38;66.62
73112;HTU21D;61301;51.956;5.876;2022-12-29T01:38:58;14.32;66.81
73112;HTU21D;61301;51.956;5.876;2022-12-29T01:41:24;14.30;66.75
73112;HTU21D;61301;51.956;5.876;2022-12-29T01:43:55;14.33;66.74
73112;HTU21D;61301;51.956;5.876;2022-12-29T01:46:40;14.25;67.20
73112;HTU21D;61301;51.956;5.876;2022-12-29T01:51:47;14.33;67.15
73112;HTU21D;61301;51.956;5.876;2022-12-29T01:54:29;14.26;67.55
73112;HTU21D;61301;51.956;5.876;2022-12-29T01:57:01;14.25;67.66
73112;HTU21D;61301;51.956;5.876;2022-12-29T01:59:32;14.26;67.70
73112;HTU21D;61301;51.956;5.876;2022-12-29T02:02:01;14.32;67.62
73112;HTU21D;61301;51.956;5.876;2022-12-29T02:04:31;14.30;67.62
73112;HTU21D;61301;51.956;5.876;2022-12-29T02:07:01;14.41;67.28
73112;HTU21D;61301;51.956;5.876;2022-12-29T02:09:29;14.38;67.26
73112;HTU21D;61301;51.956;5.876;2022-12-29T02:11:55;14.47;67.04
73112;HTU21D;61301;51.956;5.876;2022-12-29T02:14:22;14.48;66.91
73112;HTU21D;61301;51.956;5.876;2022-12-29T02:17:38;14.48;66.85
73112;HTU21D;61301;51.956;5.876;2022-12-29T02:39:09;14.65;64.79
73112;HTU21D;61301;51.956;5.876;2022-12-29T02:47:34;14.84;63.47
73112;HTU21D;61301;51.956;5.876;2022-12-29T02:50:08;14.86;63.28
73112;HTU21D;61301;51.956;5.876;2022-12-29T02:52:38;14.93;62.79
73112;HTU21D;61301;51.956;5.876;2022-12-29T02:55:06;14.87;62.61
73112;HTU21D;61301;51.956;5.876;2022-12-29T02:57:34;14.97;62.45
73112;HTU21D;61301;51.956;5.876;2022-12-29T03:00:05;14.88;62.62
73112;HTU21D;61301;51.956;5.876;2022-12-29T03:11:12;14.97;61.49
73112;HTU21D;61301;51.956;5.876;2022-12-29T03:14:09;15.06;60.96
73112;HTU21D;61301;51.956;5.876;2022-12-29T03:17:00;15.09;60.99
73112;HTU21D;61301;51.956;5.876;2022-12-29T03:19:49;15.09;60.99
73112;HTU21D;61301;51.956;5.876;2022-12-29T03:22:27;15.10;60.99
73112;HTU21D;61301;51.956;5.876;2022-12-29T03:27:51;15.07;60.93
73112;HTU21D;61301;51.956;5.876;2022-12-29T03:30:19;15.04;61.07
73112;HTU21D;61301;51.956;5.876;2022-12-29T03:32:51;15.16;60.89
73112;HTU21D;61301;51.956;5.876;2022-12-29T03:35:21;15.23;60.96
73112;HTU21D;61301;51.956;5.876;2022-12-29T03:40:33;15.11;61.28
73112;HTU21D;61301;51.956;5.876;2022-12-29T03:43:02;15.12;61.28
73112;HTU21D;61301;51.956;5.876;2022-12-29T03:45:29;15.06;61.27
73112;HTU21D;61301;51.956;5.876;2022-12-29T03:47:55;15.00;61.60
73112;HTU21D;61301;51.956;5.876;2022-12-29T03:50:22;15.03;61.60
73112;HTU21D;61301;51.956;5.876;2022-12-29T03:52:48;15.01;61.63
73112;HTU21D;61301;51.956;5.876;2022-12-29T03:55:14;15.02;61.74
73112;HTU21D;61301;51.956;5.876;2022-12-29T03:57:40;15.07;61.59
73112;HTU21D;61301;51.956;5.876;2022-12-29T04:00:10;14.95;61.73
73112;HTU21D;61301;51.956;5.876;2022-12-29T04:02:47;14.97;61.76
73112;HTU21D;61301;51.956;5.876;2022-12-29T04:05:19;14.95;61.33
73112;HTU21D;61301;51.956;5.876;2022-12-29T04:07:47;14.87;61.32
73112;HTU21D;61301;51.956;5.876;2022-12-29T04:10:13;15.00;60.96
73112;HTU21D;61301;51.956;5.876;2022-12-29T04:12:40;14.97;61.11
73112;HTU21D;61301;51.956;5.876;2022-12-29T04:15:09;14.87;61.57
73112;HTU21D;61301;51.956;5.876;2022-12-29T04:17:35;14.92;61.63
73112;HTU21D;61301;51.956;5.876;2022-12-29T04:20:03;14.97;61.22
73112;HTU21D;61301;51.956;5.876;2022-12-29T04:22:48;14.92;61.52
73112;HTU21D;61301;51.956;5.876;2022-12-29T04:25:14;14.85;61.79
73112;HTU21D;61301;51.956;5.876;2022-12-29T04:27:41;14.84;61.70
73112;HTU21D;61301;51.956;5.876;2022-12-29T04:30:20;14.80;61.74
73112;HTU21D;61301;51.956;5.876;2022-12-29T04:33:08;14.79;63.24
73112;HTU21D;61301;51.956;5.876;2022-12-29T04:35:34;14.77;63.82
73112;HTU21D;61301;51.956;5.876;2022-12-29T04:38:01;14.67;64.47
73112;HTU21D;61301;51.956;5.876;2022-12-29T04:40:28;14.60;64.71
73112;HTU21D;61301;51.956;5.876;2022-12-29T04:42:54;14.50;65.50
73112;HTU21D;61301;51.956;5.876;2022-12-29T04:45:24;14.29;66.36
73112;HTU21D;61301;51.956;5.876;2022-12-29T04:48:07;14.47;65.95
73112;HTU21D;61301;51.956;5.876;2022-12-29T04:50:43;14.25;66.32
73112;HTU21D;61301;51.956;5.876;2022-12-29T04:53:16;14.17;66.32
73112;HTU21D;61301;51.956;5.876;2022-12-29T04:55:44;14.26;65.17
73112;HTU21D;61301;51.956;5.876;2022-12-29T04:58:10;14.40;64.30
73112;HTU21D;61301;51.956;5.876;2022-12-29T05:00:36;14.29;64.54
73112;HTU21D;61301;51.956;5.876;2022-12-29T05:03:03;14.21;64.93
73112;HTU21D;61301;51.956;5.876;2022-12-29T05:05:29;14.20;65.14
73112;HTU21D;61301;51.956;5.876;2022-12-29T05:08:00;14.11;65.12
73112;HTU21D;61301;51.956;5.876;2022-12-29T05:10:27;14.10;65.10
73112;HTU21D;61301;51.956;5.876;2022-12-29T05:12:57;13.96;65.59
73112;HTU21D;61301;51.956;5.876;2022-12-29T05:15:23;14.00;65.56
73112;HTU21D;61301;51.956;5.876;2022-12-29T05:17:50;13.96;66.01
73112;HTU21D;61301;51.956;5.876;2022-12-29T05:20:17;13.92;66.43
73112;HTU21D;61301;51.956;5.876;2022-12-29T05:22:43;13.89;67.10
73112;HTU21D;61301;51.956;5.876;2022-12-29T05:25:12;13.73;67.65
73112;HTU21D;61301;51.956;5.876;2022-12-29T05:27:50;13.84;67.44
73112;HTU21D;61301;51.956;5.876;2022-12-29T05:30:39;13.70;67.67
73112;HTU21D;61301;51.956;5.876;2022-12-29T05:33:06;13.66;67.55
73112;HTU21D;61301;51.956;5.876;2022-12-29T05:35:33;13.63;67.40
73112;HTU21D;61301;51.956;5.876;2022-12-29T05:38:00;13.52;67.58
73112;HTU21D;61301;51.956;5.876;2022-12-29T05:40:26;13.41;67.42
73112;HTU21D;61301;51.956;5.876;2022-12-29T05:42:56;13.45;67.01
73112;HTU21D;61301;51.956;5.876;2022-12-29T05:45:35;13.37;66.95
73112;HTU21D;61301;51.956;5.876;2022-12-29T05:48:20;13.23;67.09
73112;HTU21D;61301;51.956;5.876;2022-12-29T05:51:24;13.30;66.53
73112;HTU21D;61301;51.956;5.876;2022-12-29T05:53:52;13.24;66.36
73112;HTU21D;61301;51.956;5.876;2022-12-29T05:56:18;13.25;66.35
73112;HTU21D;61301;51.956;5.876;2022-12-29T05:58:51;13.21;66.46
73112;HTU21D;61301;51.956;5.876;2022-12-29T06:01:17;13.29;66.17
73112;HTU21D;61301;51.956;5.876;2022-12-29T06:03:44;13.26;65.88
73112;HTU21D;61301;51.956;5.876;2022-12-29T06:06:10;13.29;65.53
73112;HTU21D;61301;51.956;5.876;2022-12-29T06:08:36;13.34;65.35
73112;HTU21D;61301;51.956;5.876;2022-12-29T06:11:03;13.40;64.69
73112;HTU21D;61301;51.956;5.876;2022-12-29T06:13:29;13.30;64.05
73112;HTU21D;61301;51.956;5.876;2022-12-29T06:15:56;13.39;63.70
73112;HTU21D;61301;51.956;5.876;2022-12-29T06:18:25;13.40;63.53
73112;HTU21D;61301;51.956;5.876;2022-12-29T06:20:51;13.46;63.38
73112;HTU21D;61301;51.956;5.876;2022-12-29T06:23:18;13.32;63.18
73112;HTU21D;61301;51.956;5.876;2022-12-29T06:25:46;13.29;63.08
73112;HTU21D;61301;51.956;5.876;2022-12-29T06:28:12;13.36;62.47
73112;HTU21D;61301;51.956;5.876;2022-12-29T06:30:38;13.38;62.54
73112;HTU21D;61301;51.956;5.876;2022-12-29T06:33:04;13.44;62.41
73112;HTU21D;61301;51.956;5.876;2022-12-29T06:35:30;13.30;62.39
73112;HTU21D;61301;51.956;5.876;2022-12-29T06:37:56;13.29;62.21
73112;HTU21D;61301;51.956;5.876;2022-12-29T06:40:23;13.36;62.12
73112;HTU21D;61301;51.956;5.876;2022-12-29T06:43:04;13.27;61.91
73112;HTU21D;61301;51.956;5.876;2022-12-29T06:45:48;13.36;61.59
73112;HTU21D;61301;51.956;5.876;2022-12-29T06:48:14;13.40;61.43
73112;HTU21D;61301;51.956;5.876;2022-12-29T06:50:40;13.39;61.20
73112;HTU21D;61301;51.956;5.876;2022-12-29T06:53:06;13.53;60.74
73112;HTU21D;61301;51.956;5.876;2022-12-29T06:55:32;13.54;60.85
73112;HTU21D;61301;51.956;5.876;2022-12-29T06:57:59;13.58;60.47
73112;HTU21D;61301;51.956;5.876;2022-12-29T07:00:26;13.61;60.08
73112;HTU21D;61301;51.956;5.876;2022-12-29T07:02:55;13.68;59.64
73112;HTU21D;61301;51.956;5.876;2022-12-29T07:05:21;13.66;59.93
73112;HTU21D;61301;51.956;5.876;2022-12-29T07:07:47;13.61;59.31
73112;HTU21D;61301;51.956;5.876;2022-12-29T07:10:13;13.62;59.50
73112;HTU21D;61301;51.956;5.876;2022-12-29T07:12:39;13.73;59.28
73112;HTU21D;61301;51.956;5.876;2022-12-29T07:15:05;13.73;59.46
73112;HTU21D;61301;51.956;5.876;2022-12-29T07:17:32;13.73;59.50
73112;HTU21D;61301;51.956;5.876;2022-12-29T07:19:58;13.59;59.48
73112;HTU21D;61301;51.956;5.876;2022-12-29T07:22:24;13.70;59.18
73112;HTU21D;61301;51.956;5.876;2022-12-29T07:24:50;13.64;59.11
73112;HTU21D;61301;51.956;5.876;2022-12-29T07:27:15;13.66;59.09
73112;HTU21D;61301;51.956;5.876;2022-12-29T07:29:41;13.76;58.89
73112;HTU21D;61301;51.956;5.876;2022-12-29T07:32:07;13.71;59.20
73112;HTU21D;61301;51.956;5.876;2022-12-29T07:34:33;13.75;58.89
73112;HTU21D;61301;51.956;5.876;2022-12-29T07:36:59;13.68;58.99
73112;HTU21D;61301;51.956;5.876;2022-12-29T07:39:25;13.80;58.74
73112;HTU21D;61301;51.956;5.876;2022-12-29T07:41:51;13.80;59.09
73112;HTU21D;61301;51.956;5.876;2022-12-29T07:44:19;13.71;59.09
73112;HTU21D;61301;51.956;5.876;2022-12-29T07:47:04;13.82;58.80
73112;HTU21D;61301;51.956;5.876;2022-12-29T07:49:30;13.78;58.84
73112;HTU21D;61301;51.956;5.876;2022-12-29T07:51:56;13.90;58.82
73112;HTU21D;61301;51.956;5.876;2022-12-29T07:54:22;13.86;58.64
73112;HTU21D;61301;51.956;5.876;2022-12-29T07:56:48;13.86;58.21
73112;HTU21D;61301;51.956;5.876;2022-12-29T07:59:15;13.91;57.77
73112;HTU21D;61301;51.956;5.876;2022-12-29T08:01:41;13.90;57.55
73112;HTU21D;61301;51.956;5.876;2022-12-29T08:04:07;14.03;57.52
73112;HTU21D;61301;51.956;5.876;2022-12-29T08:06:33;13.95;57.13
73112;HTU21D;61301;51.956;5.876;2022-12-29T08:08:59;13.96;57.26
73112;HTU21D;61301;51.956;5.876;2022-12-29T08:11:26;13.86;57.21
73112;HTU21D;61301;51.956;5.876;2022-12-29T08:13:52;13.91;57.10
73112;HTU21D;61301;51.956;5.876;2022-12-29T08:16:19;13.80;57.27
73112;HTU21D;61301;51.956;5.876;2022-12-29T08:18:44;13.82;57.26
73112;HTU21D;61301;51.956;5.876;2022-12-29T08:21:10;13.82;56.84
73112;HTU21D;61301;51.956;5.876;2022-12-29T08:23:36;13.77;57.30
73112;HTU21D;61301;51.956;5.876;2022-12-29T08:26:04;13.83;56.75
73112;HTU21D;61301;51.956;5.876;2022-12-29T08:28:31;13.76;56.69
73112;HTU21D;61301;51.956;5.876;2022-12-29T08:30:58;13.79;56.22
73112;HTU21D;61301;51.956;5.876;2022-12-29T08:33:25;13.81;56.45
73112;HTU21D;61301;51.956;5.876;2022-12-29T08:35:51;13.90;56.32
73112;HTU21D;61301;51.956;5.876;2022-12-29T08:38:18;13.88;56.32
73112;HTU21D;61301;51.956;5.876;2022-12-29T08:40:44;13.82;56.36
73112;HTU21D;61301;51.956;5.876;2022-12-29T08:43:10;13.89;56.61
73112;HTU21D;61301;51.956;5.876;2022-12-29T08:45:36;14.12;56.26
73112;HTU21D;61301;51.956;5.876;2022-12-29T08:48:02;14.10;55.94
73112;HTU21D;61301;51.956;5.876;2022-12-29T08:50:28;14.30;56.14
73112;HTU21D;61301;51.956;5.876;2022-12-29T08:52:54;14.37;55.60
73112;HTU21D;61301;51.956;5.876;2022-12-29T08:55:20;14.28;55.94
73112;HTU21D;61301;51.956;5.876;2022-12-29T08:57:47;14.10;56.29
73112;HTU21D;61301;51.956;5.876;2022-12-29T09:00:16;14.05;56.15
73112;HTU21D;61301;51.956;5.876;2022-12-29T09:02:46;14.12;56.49
73112;HTU21D;61301;51.956;5.876;2022-12-29T09:05:12;14.15;56.81
73112;HTU21D;61301;51.956;5.876;2022-12-29T09:07:39;14.05;56.87
73112;HTU21D;61301;51.956;5.876;2022-12-29T09:10:06;14.03;56.81
73112;HTU21D;61301;51.956;5.876;2022-12-29T09:12:33;13.94;56.82
73112;HTU21D;61301;51.956;5.876;2022-12-29T09:14:59;13.98;57.79
73112;HTU21D;61301;51.956;5.876;2022-12-29T09:17:24;13.78;58.92
73112;HTU21D;61301;51.956;5.876;2022-12-29T09:20:18;13.70;59.13
73112;HTU21D;61301;51.956;5.876;2022-12-29T09:22:45;13.61;60.00
73112;HTU21D;61301;51.956;5.876;2022-12-29T09:25:12;13.53;59.85
73112;HTU21D;61301;51.956;5.876;2022-12-29T09:27:38;13.58;59.78
73112;HTU21D;61301;51.956;5.876;2022-12-29T09:30:07;13.50;60.01
73112;HTU21D;61301;51.956;5.876;2022-12-29T09:32:34;13.52;59.71
73112;HTU21D;61301;51.956;5.876;2022-12-29T09:35:00;13.49;59.60
73112;HTU21D;61301;51.956;5.876;2022-12-29T09:37:27;13.53;59.10
73112;HTU21D;61301;51.956;5.876;2022-12-29T09:39:53;13.66;58.58
73112;HTU21D;61301;51.956;5.876;2022-12-29T09:47:31;13.69;58.25
73112;HTU21D;61301;51.956;5.876;2022-12-29T09:52:52;13.68;58.72
73112;HTU21D;61301;51.956;5.876;2022-12-29T09:55:23;13.67;59.62
73112;HTU21D;61301;51.956;5.876;2022-12-29T09:57:56;13.63;59.57
73112;HTU21D;61301;51.956;5.876;2022-12-29T10:00:38;13.56;60.51
73112;HTU21D;61301;51.956;5.876;2022-12-29T10:03:19;13.51;61.85
73112;HTU21D;61301;51.956;5.876;2022-12-29T10:06:50;13.36;62.38
73112;HTU21D;61301;51.956;5.876;2022-12-29T10:15:10;13.26;63.71
73112;HTU21D;61301;51.956;5.876;2022-12-29T10:18:12;13.10;64.34
73112;HTU21D;61301;51.956;5.876;2022-12-29T10:23:45;12.95;65.79
73112;HTU21D;61301;51.956;5.876;2022-12-29T10:26:15;13.01;65.62
73112;HTU21D;61301;51.956;5.876;2022-12-29T10:28:58;12.91;66.15
73112;HTU21D;61301;51.956;5.876;2022-12-29T10:31:37;12.88;66.27
73112;HTU21D;61301;51.956;5.876;2022-12-29T10:34:20;12.79;66.55
73112;HTU21D;61301;51.956;5.876;2022-12-29T10:36:49;12.78;66.54
73112;HTU21D;61301;51.956;5.876;2022-12-29T10:39:25;12.74;66.75
73112;HTU21D;61301;51.956;5.876;2022-12-29T10:44:44;12.78;66.40
73112;HTU21D;61301;51.956;5.876;2022-12-29T10:47:15;12.86;66.69
73112;HTU21D;61301;51.956;5.876;2022-12-29T10:49:42;12.73;67.05
73112;HTU21D;61301;51.956;5.876;2022-12-29T10:52:11;12.86;66.78
73112;HTU21D;61301;51.956;5.876;2022-12-29T10:55:00;12.92;66.75
73112;HTU21D;61301;51.956;5.876;2022-12-29T10:57:33;12.82;67.63
73112;HTU21D;61301;51.956;5.876;2022-12-29T11:00:01;12.79;67.25
73112;HTU21D;61301;51.956;5.876;2022-12-29T11:02:45;12.87;67.17
73112;HTU21D;61301;51.956;5.876;2022-12-29T11:05:46;12.94;67.26
73112;HTU21D;61301;51.956;5.876;2022-12-29T11:08:22;12.91;66.93
73112;HTU21D;61301;51.956;5.876;2022-12-29T11:11:07;12.93;66.71
73112;HTU21D;61301;51.956;5.876;2022-12-29T11:13:46;12.99;66.43
73112;HTU21D;61301;51.956;5.876;2022-12-29T11:16:12;12.95;66.89
73112;HTU21D;61301;51.956;5.876;2022-12-29T11:18:40;12.96;66.20
73112;HTU21D;61301;51.956;5.876;2022-12-29T11:21:25;13.01;66.10
73112;HTU21D;61301;51.956;5.876;2022-12-29T11:23:57;13.19;65.47
73112;HTU21D;61301;51.956;5.876;2022-12-29T11:26:23;13.16;65.11
73112;HTU21D;61301;51.956;5.876;2022-12-29T11:31:44;13.25;65.19
73112;HTU21D;61301;51.956;5.876;2022-12-29T11:34:19;13.30;65.85
73112;HTU21D;61301;51.956;5.876;2022-12-29T11:36:46;13.25;65.78
73112;HTU21D;61301;51.956;5.876;2022-12-29T11:39:34;13.32;65.32
73112;HTU21D;61301;51.956;5.876;2022-12-29T11:42:03;13.22;64.89
73112;HTU21D;61301;51.956;5.876;2022-12-29T11:44:35;13.31;64.82
73112;HTU21D;61301;51.956;5.876;2022-12-29T11:47:02;13.29;64.94
73112;HTU21D;61301;51.956;5.876;2022-12-29T11:49:28;13.40;64.49
73112;HTU21D;61301;51.956;5.876;2022-12-29T11:51:55;13.46;63.92
73112;HTU21D;61301;51.956;5.876;2022-12-29T11:54:28;13.44;63.83
73112;HTU21D;61301;51.956;5.876;2022-12-29T11:56:56;13.41;63.93
73112;HTU21D;61301;51.956;5.876;2022-12-29T12:01:50;13.47;63.95
73112;HTU21D;61301;51.956;5.876;2022-12-29T12:04:23;13.41;63.96
73112;HTU21D;61301;51.956;5.876;2022-12-29T12:09:35;13.37;62.60
73112;HTU21D;61301;51.956;5.876;2022-12-29T12:12:03;13.41;62.11
73112;HTU21D;61301;51.956;5.876;2022-12-29T12:14:43;13.54;62.37
73112;HTU21D;61301;51.956;5.876;2022-12-29T12:17:52;13.62;61.87
73112;HTU21D;61301;51.956;5.876;2022-12-29T12:20:27;13.53;61.76
73112;HTU21D;61301;51.956;5.876;2022-12-29T12:23:11;13.66;61.50
73112;HTU21D;61301;51.956;5.876;2022-12-29T12:25:40;13.66;61.21
73112;HTU21D;61301;51.956;5.876;2022-12-29T12:28:30;13.74;60.89
73112;HTU21D;61301;51.956;5.876;2022-12-29T12:30:59;13.68;60.72
73112;HTU21D;61301;51.956;5.876;2022-12-29T12:33:35;13.83;60.53
73112;HTU21D;61301;51.956;5.876;2022-12-29T12:39:06;13.81;60.62
73112;HTU21D;61301;51.956;5.876;2022-12-29T12:42:00;13.89;60.15
73112;HTU21D;61301;51.956;5.876;2022-12-29T12:47:23;14.13;59.92
73112;HTU21D;61301;51.956;5.876;2022-12-29T13:17:32;13.68;61.37
73112;HTU21D;61301;51.956;5.876;2022-12-29T13:23:01;13.74;61.41
73112;HTU21D;61301;51.956;5.876;2022-12-29T13:25:50;13.66;61.77
73112;HTU21D;61301;51.956;5.876;2022-12-29T13:28:28;13.70;61.80
73112;HTU21D;61301;51.956;5.876;2022-12-29T13:31:07;13.66;61.85
73112;HTU21D;61301;51.956;5.876;2022-12-29T13:34:46;13.71;61.40
73112;HTU21D;61301;51.956;5.876;2022-12-29T13:36:54;13.66;61.41
73112;HTU21D;61301;51.956;5.876;2022-12-29T13:39:33;13.67;61.35
73112;HTU21D;61301;51.956;5.876;2022-12-29T13:42:02;13.62;61.18
73112;HTU21D;61301;51.956;5.876;2022-12-29T13:44:37;13.60;61.21
73112;HTU21D;61301;51.956;5.876;2022-12-29T13:49:48;13.66;60.28
73112;HTU21D;61301;51.956;5.876;2022-12-29T13:52:25;13.73;60.13
73112;HTU21D;61301;51.956;5.876;2022-12-29T14:00:13;13.70;59.98
73112;HTU21D;61301;51.956;5.876;2022-12-29T14:05:31;13.58;61.79
73112;HTU21D;61301;51.956;5.876;2022-12-29T14:08:03;13.47;62.50
73112;HTU21D;61301;51.956;5.876;2022-12-29T14:10:34;13.49;62.20
73112;HTU21D;61301;51.956;5.876;2022-12-29T14:13:16;13.44;61.76
73112;HTU21D;61301;51.956;5.876;2022-12-29T14:15:50;13.26;61.83
73112;HTU21D;61301;51.956;5.876;2022-12-29T14:18:19;13.26;62.08
73112;HTU21D;61301;51.956;5.876;2022-12-29T14:20:54;13.15;62.94
73112;HTU21D;61301;51.956;5.876;2022-12-29T14:23:40;13.09;62.39
73112;HTU21D;61301;51.956;5.876;2022-12-29T14:28:34;13.07;61.86
73112;HTU21D;61301;51.956;5.876;2022-12-29T14:31:17;13.06;61.26
73112;HTU21D;61301;51.956;5.876;2022-12-29T14:37:04;13.01;62.13
73112;HTU21D;61301;51.956;5.876;2022-12-29T14:39:42;12.95;62.55
73112;HTU21D;61301;51.956;5.876;2022-12-29T14:49:57;12.49;66.03
73112;HTU21D;61301;51.956;5.876;2022-12-29T14:52:29;12.52;65.88
73112;HTU21D;61301;51.956;5.876;2022-12-29T14:57:58;12.49;66.21
73112;HTU21D;61301;51.956;5.876;2022-12-29T15:00:29;12.41;66.52
73112;HTU21D;61301;51.956;5.876;2022-12-29T15:03:06;12.46;66.32
73112;HTU21D;61301;51.956;5.876;2022-12-29T15:05:50;12.43;66.69
73112;HTU21D;61301;51.956;5.876;2022-12-29T15:08:20;12.37;67.10
73112;HTU21D;61301;51.956;5.876;2022-12-29T15:13:36;12.37;67.23
73112;HTU21D;61301;51.956;5.876;2022-12-29T15:16:04;12.32;67.92
73112;HTU21D;61301;51.956;5.876;2022-12-29T15:18:32;12.30;68.51
73112;HTU21D;61301;51.956;5.876;2022-12-29T15:21:00;12.40;68.30
73112;HTU21D;61301;51.956;5.876;2022-12-29T15:23:28;12.33;68.60
73112;HTU21D;61301;51.956;5.876;2022-12-29T15:26:01;12.34;68.35
73112;HTU21D;61301;51.956;5.876;2022-12-29T15:28:43;12.34;68.26
73112;HTU21D;61301;51.956;5.876;2022-12-29T15:31:17;12.34;68.20
73112;HTU21D;61301;51.956;5.876;2022-12-29T15:33:48;12.35;67.86
73112;HTU21D;61301;51.956;5.876;2022-12-29T15:38:46;12.37;67.27
73112;HTU21D;61301;51.956;5.876;2022-12-29T15:44:11;12.43;66.81
73112;HTU21D;61301;51.956;5.876;2022-12-29T15:46:40;12.47;66.53
73112;HTU21D;61301;51.956;5.876;2022-12-29T15:49:07;12.44;66.27
73112;HTU21D;61301;51.956;5.876;2022-12-29T15:51:37;12.42;66.09
73112;HTU21D;61301;51.956;5.876;2022-12-29T15:54:04;12.37;65.88
73112;HTU21D;61301;51.956;5.876;2022-12-29T15:56:31;12.52;65.14
73112;HTU21D;61301;51.956;5.876;2022-12-29T15:58:58;12.43;65.46
73112;HTU21D;61301;51.956;5.876;2022-12-29T16:03:55;12.44;65.20
73112;HTU21D;61301;51.956;5.876;2022-12-29T16:06:38;12.38;65.25
73112;HTU21D;61301;51.956;5.876;2022-12-29T16:09:19;12.38;65.19
73112;HTU21D;61301;51.956;5.876;2022-12-29T16:11:57;12.42;64.98
73112;HTU21D;61301;51.956;5.876;2022-12-29T16:14:39;12.45;64.86
73112;HTU21D;61301;51.956;5.876;2022-12-29T16:17:15;12.42;64.94
73112;HTU21D;61301;51.956;5.876;2022-12-29T16:19:59;12.33;65.46
73112;HTU21D;61301;51.956;5.876;2022-12-29T16:22:29;12.35;65.41
73112;HTU21D;61301;51.956;5.876;2022-12-29T16:24:58;12.42;65.24
73112;HTU21D;61301;51.956;5.876;2022-12-29T16:27:32;12.32;65.40
73112;HTU21D;61301;51.956;5.876;2022-12-29T16:30:04;12.46;65.11
73112;HTU21D;61301;51.956;5.876;2022-12-29T16:32:31;12.34;65.17
73112;HTU21D;61301;51.956;5.876;2022-12-29T16:37:38;12.31;64.98
73112;HTU21D;61301;51.956;5.876;2022-12-29T16:42:46;12.36;64.27
73112;HTU21D;61301;51.956;5.876;2022-12-29T16:47:46;12.40;64.16
73112;HTU21D;61301;51.956;5.876;2022-12-29T16:50:17;12.30;63.92
73112;HTU21D;61301;51.956;5.876;2022-12-29T16:52:48;12.29;63.97
73112;HTU21D;61301;51.956;5.876;2022-12-29T16:55:17;12.18;64.15
73112;HTU21D;61301;51.956;5.876;2022-12-29T16:57:44;12.21;63.79
73112;HTU21D;61301;51.956;5.876;2022-12-29T17:00:22;12.21;63.56
73112;HTU21D;61301;51.956;5.876;2022-12-29T17:02:51;12.18;63.55
73112;HTU21D;61301;51.956;5.876;2022-12-29T17:05:18;12.15;63.37
73112;HTU21D;61301;51.956;5.876;2022-12-29T17:07:45;12.16;63.24
73112;HTU21D;61301;51.956;5.876;2022-12-29T17:10:11;12.10;63.18
73112;HTU21D;61301;51.956;5.876;2022-12-29T17:12:38;12.11;63.25
73112;HTU21D;61301;51.956;5.876;2022-12-29T17:17:45;12.03;63.30
73112;HTU21D;61301;51.956;5.876;2022-12-29T17:20:23;12.00;63.35
73112;HTU21D;61301;51.956;5.876;2022-12-29T17:22:50;11.97;63.46
73112;HTU21D;61301;51.956;5.876;2022-12-29T17:25:23;11.92;63.47
73112;HTU21D;61301;51.956;5.876;2022-12-29T17:27:57;11.97;63.07
73112;HTU21D;61301;51.956;5.876;2022-12-29T17:30:25;11.87;63.06
73112;HTU21D;61301;51.956;5.876;2022-12-29T17:32:57;11.89;62.87
73112;HTU21D;61301;51.956;5.876;2022-12-29T17:35:24;11.90;62.97
73112;HTU21D;61301;51.956;5.876;2022-12-29T17:37:51;11.87;62.61
73112;HTU21D;61301;51.956;5.876;2022-12-29T17:40:23;11.90;62.50
73112;HTU21D;61301;51.956;5.876;2022-12-29T17:42:52;11.78;62.49
73112;HTU21D;61301;51.956;5.876;2022-12-29T17:45:21;11.86;62.41
73112;HTU21D;61301;51.956;5.876;2022-12-29T17:47:47;11.81;62.11
73112;HTU21D;61301;51.956;5.876;2022-12-29T17:50:16;11.83;61.94
73112;HTU21D;61301;51.956;5.876;2022-12-29T17:52:46;11.77;61.90
73112;HTU21D;61301;51.956;5.876;2022-12-29T17:55:16;11.76;61.96
73112;HTU21D;61301;51.956;5.876;2022-12-29T17:57:43;11.78;61.86
73112;HTU21D;61301;51.956;5.876;2022-12-29T18:00:18;11.73;61.89
73112;HTU21D;61301;51.956;5.876;2022-12-29T18:02:44;11.68;61.98
73112;HTU21D;61301;51.956;5.876;2022-12-29T18:05:21;11.67;61.89
73112;HTU21D;61301;51.956;5.876;2022-12-29T18:07:49;11.62;61.98
73112;HTU21D;61301;51.956;5.876;2022-12-29T18:10:16;11.62;61.86
73112;HTU21D;61301;51.956;5.876;2022-12-29T18:12:43;11.54;62.03
73112;HTU21D;61301;51.956;5.876;2022-12-29T18:15:22;11.58;61.65
73112;HTU21D;61301;51.956;5.876;2022-12-29T18:17:53;11.46;61.84